Providenciales International Airport (MBPV)
Providenciales, TC
Field Elevation: 28
Lat: 21°46.43N  Long: 72°16.12W
CTAF/Unicom Freq: 126.0000
   
    
Weather Advisories
2017-05-29   05:41 Z
Altimeter 30.05" Hg
Wind 100° @ 10 KT
Gusts 14 KT
Temperature 27° C (81° F)
Dewpoint 23° C (73° F)
Relative Humidity 80%
Density Altitude 1,200 feet
Condensation Altitude 2,000 feet
Precip Gauge 0.0" / 0.0" (hour/day)
Heat Index: 30° C (86° F)
Wind and Runways
Indicated Runway = 10
Headwind = 10 kt
Crosswind = 0 kt
History
 
 
 
More Info
All DigiWx sites map
 
NOAA Forecast
 
 
about DigiWx
 
FAA Disclaimer: The data displayed is for advisory purposes only and is not to be used for flight planning or operations. For official data, please call (not available) to hear the current automated AWOS voice message.
  METAR MBPV 290541Z AUTO 10010G14KT 27/23 A3005